Time;durP1;ratioP1;P1;durP2;ratioP2;P2;SDS_P1;SDS_P2;PMS_P1;PMS_P2;Temp;Humidity;BMP_temperature;BMP_pressure;BME280_temperature;BME280_humidity;BME280_pressure;Samples;Min_cycle;Max_cycle;Signal;HPM_P1;HPM_P2
2023/07/20 00:02:30;;;;;;;;;;;;;;;17.45;100.00;101315.63;10497858;28;20286;-61
2023/07/20 00:07:33;;;;;;;;;;;;;;;17.62;100.00;101318.78;10497722;28;20332;-61
2023/07/20 00:12:35;;;;;;;;;;;;;;;17.45;100.00;101318.28;10497623;28;19960;-60
2023/07/20 00:17:39;;;;;;;;;;;;;;;17.23;100.00;101319.13;10497717;28;20019;-60
2023/07/20 00:22:42;;;;;;;;;;;;;;;17.41;100.00;101319.47;10503895;28;19925;-61
2023/07/20 00:27:44;;;;;;;;;;;;;;;17.22;100.00;101322.72;10505394;28;19934;-61
2023/07/20 00:32:46;;;;;;;;;;;;;;;17.15;100.00;101315.38;10505419;28;19924;-61
2023/07/20 00:37:49;;;;;;;;;;;;;;;17.20;100.00;101313.22;10505163;28;19939;-61
2023/07/20 00:42:51;;;;;;;;;;;;;;;17.10;100.00;101313.09;10504783;28;19930;-61
2023/07/20 00:47:53;;;;;;;;;;;;;;;17.41;100.00;101318.63;10504742;28;19924;-61
2023/07/20 00:52:56;;;;;;;;;;;;;;;17.35;100.00;101327.03;10486875;28;19965;-61
2023/07/20 00:57:58;;;;;;;;;;;;;;;17.19;100.00;101324.75;10504453;28;19931;-61
2023/07/20 01:03:01;;;;;;;;;;;;;;;17.39;100.00;101328.50;10504205;28;19931;-61
2023/07/20 01:08:17;;;;;;;;;;;;;;;17.31;100.00;101323.78;10486147;28;20011;-61
2023/07/20 01:13:20;;;;;;;;;;;;;;;17.24;100.00;101333.19;10485827;28;19924;-61
2023/07/20 01:18:22;;;;;;;;;;;;;;;17.19;100.00;101333.53;10503531;28;19924;-60
2023/07/20 01:23:42;;;;;;;;;;;;;;;17.03;100.00;101333.88;10503477;28;19936;-61
2023/07/20 01:28:48;;;;;;;;;;;;;;;17.20;100.00;101329.94;10503119;28;19931;-61
2023/07/20 01:33:50;;;;;;;;;;;;;;;16.86;100.00;101331.66;10501842;28;19931;-60
2023/07/20 01:38:53;;;;;;;;;;;;;;;17.21;100.00;101331.59;10485089;28;19925;-61
2023/07/20 01:43:58;;;;;;;;;;;;;;;17.26;100.00;101331.25;10484667;28;20283;-61
2023/07/20 01:49:00;;;;;;;;;;;;;;;17.00;100.00;101333.25;10502226;28;19925;-61
2023/07/20 01:54:02;;;;;;;;;;;;;;;17.06;100.00;101336.28;10502381;28;19931;-61
2023/07/20 01:59:04;;;;;;;;;;;;;;;17.38;100.00;101334.75;10502039;28;19935;-61
2023/07/20 02:04:07;;;;;;;;;;;;;;;17.23;100.00;101334.13;10501676;28;19924;-61
2023/07/20 02:09:09;;;;;;;;;;;;;;;16.94;100.00;101339.84;10501569;28;19924;-60
2023/07/20 02:14:11;;;;;;;;;;;;;;;17.07;100.00;101334.47;10501038;28;19947;-61
2023/07/20 02:19:14;;;;;;;;;;;;;;;17.03;100.00;101336.50;10501329;28;19928;-61
2023/07/20 02:24:16;;;;;;;;;;;;;;;17.03;100.00;101338.28;10500853;28;19939;-60
2023/07/20 02:29:18;;;;;;;;;;;;;;;16.96;100.00;101334.44;10482930;28;20288;-60
2023/07/20 02:34:20;;;;;;;;;;;;;;;16.76;100.00;101334.13;10482680;28;19924;-60
2023/07/20 02:39:23;;;;;;;;;;;;;;;16.85;100.00;101333.47;10500240;28;19924;-60
2023/07/20 02:44:25;;;;;;;;;;;;;;;16.61;100.00;101343.19;10499930;28;19924;-61
2023/07/20 02:49:27;;;;;;;;;;;;;;;16.62;100.00;101343.06;10499709;28;20298;-60
2023/07/20 02:54:30;;;;;;;;;;;;;;;16.69;100.00;101354.91;10499860;28;19931;-60
2023/07/20 02:59:32;;;;;;;;;;;;;;;16.66;100.00;101347.19;10499702;28;20286;-60
2023/07/20 03:04:36;;;;;;;;;;;;;;;16.49;100.00;101352.88;10499168;28;20426;-60
2023/07/20 03:09:39;;;;;;;;;;;;;;;16.42;100.00;101349.00;10499256;28;20282;-60
2023/07/20 03:14:41;;;;;;;;;;;;;;;16.30;100.00;101356.84;10498817;28;20004;-60
2023/07/20 03:19:44;;;;;;;;;;;;;;;16.04;100.00;101373.72;10499122;28;19924;-60
2023/07/20 03:24:46;;;;;;;;;;;;;;;16.19;100.00;101379.72;10498822;28;19931;-60
2023/07/20 03:29:48;;;;;;;;;;;;;;;16.15;100.00;101385.25;10498619;28;20386;-60
2023/07/20 03:34:50;;;;;;;;;;;;;;;15.84;100.00;101386.56;10498697;28;19931;-60
2023/07/20 03:39:52;;;;;;;;;;;;;;;15.95;100.00;101381.38;10498454;28;19924;-60
2023/07/20 03:44:55;;;;;;;;;;;;;;;15.68;100.00;101380.63;10480622;28;19928;-60
2023/07/20 03:49:57;;;;;;;;;;;;;;;15.44;100.00;101397.22;10498267;28;19924;-60
2023/07/20 03:54:59;;;;;;;;;;;;;;;15.51;100.00;101395.00;10500080;28;19932;-61
2023/07/20 04:00:02;;;;;;;;;;;;;;;15.61;100.00;101396.06;10506819;28;19929;-61
2023/07/20 04:05:04;;;;;;;;;;;;;;;15.55;100.00;101397.34;10506373;28;20279;-61
2023/07/20 04:10:07;;;;;;;;;;;;;;;15.60;100.00;101400.50;10506236;28;20379;-61
2023/07/20 04:15:09;;;;;;;;;;;;;;;15.63;100.00;101398.59;10505599;28;19924;-61
2023/07/20 04:20:11;;;;;;;;;;;;;;;15.30;100.00;101395.53;10505814;28;20291;-60
2023/07/20 04:25:14;;;;;;;;;;;;;;;15.57;100.00;101394.59;10505567;28;20368;-61
2023/07/20 04:30:19;;;;;;;;;;;;;;;15.61;100.00;101398.69;10505342;28;19924;-61
2023/07/20 04:35:40;;;;;;;;;;;;;;;15.71;100.00;101407.66;10488008;28;20077;-60
2023/07/20 04:40:43;;;;;;;;;;;;;;;15.55;100.00;101413.16;10504838;28;19924;-61
2023/07/20 04:45:46;;;;;;;;;;;;;;;15.81;100.00;101412.34;10487001;28;20355;-60
2023/07/20 04:50:48;;;;;;;;;;;;;;;15.76;100.00;101417.94;10504631;28;20290;-60
2023/07/20 04:55:51;;;;;;;;;;;;;;;15.75;100.00;101419.75;10504671;28;19924;-61
2023/07/20 05:00:54;;;;;;;;;;;;;;;15.82;100.00;101424.59;10504241;28;19928;-61
2023/07/20 05:05:56;;;;;;;;;;;;;;;15.79;100.00;101428.28;10504111;28;19924;-61
2023/07/20 05:11:02;;;;;;;;;;;;;;;15.69;100.00;101422.78;10503820;28;19924;-60
2023/07/20 05:16:04;;;;;;;;;;;;;;;15.79;100.00;101433.56;10503662;28;20331;-60
2023/07/20 05:21:07;;;;;;;;;;;;;;;15.86;100.00;101421.63;10485731;28;20372;-60
2023/07/20 05:26:10;;;;;;;;;;;;;;;15.82;100.00;101421.94;10503238;28;19959;-60
2023/07/20 05:31:12;;;;;;;;;;;;;;;15.95;100.00;101423.63;10503282;28;20394;-60
2023/07/20 05:36:15;;;;;;;;;;;;;;;15.83;100.00;101429.75;10503567;28;19981;-61
2023/07/20 05:41:17;;;;;;;;;;;;;;;15.87;100.00;101433.88;10502963;28;19924;-61
2023/07/20 05:46:19;;;;;;;;;;;;;;;15.99;100.00;101437.47;10502604;28;20286;-60
2023/07/20 05:51:22;;;;;;;;;;;;;;;16.02;100.00;101439.03;10502280;28;19977;-60
2023/07/20 05:56:24;;;;;;;;;;;;;;;15.90;100.00;101435.44;10502055;28;19978;-61
2023/07/20 06:01:27;;;;;;;;;;;;;;;16.25;100.00;101450.63;10501935;28;19925;-60
2023/07/20 06:06:29;;;;;;;;;;;;;;;16.27;100.00;101448.72;10501846;28;19924;-61
2023/07/20 06:11:31;;;;;;;;;;;;;;;16.44;100.00;101448.38;10501303;28;20398;-61
2023/07/20 06:16:33;;;;;;;;;;;;;;;16.25;100.00;101450.63;10501109;28;19932;-61
2023/07/20 06:21:36;;;;;;;;;;;;;;;16.30;100.00;101446.69;10500905;28;19924;-61
2023/07/20 06:26:39;;;;;;;;;;;;;;;16.50;100.00;101458.47;10500773;28;19924;-61
2023/07/20 06:31:41;;;;;;;;;;;;;;;16.17;100.00;101464.38;10500599;28;19978;-60
2023/07/20 06:36:44;;;;;;;;;;;;;;;16.49;100.00;101458.59;10501008;28;19978;-60
2023/07/20 06:41:46;;;;;;;;;;;;;;;16.64;100.00;101457.50;10500502;28;19924;-60
2023/07/20 06:46:48;;;;;;;;;;;;;;;16.79;100.00;101471.38;10500022;28;20375;-61
2023/07/20 06:51:50;;;;;;;;;;;;;;;16.70;100.00;101466.78;10499874;28;19938;-60
2023/07/20 06:56:52;;;;;;;;;;;;;;;16.80;100.00;101467.78;10499853;28;19931;-61
2023/07/20 07:01:58;;;;;;;;;;;;;;;17.20;99.17;101458.75;10482187;28;19924;-60
2023/07/20 07:07:00;;;;;;;;;;;;;;;16.91;100.00;101469.66;10499204;28;20402;-61
2023/07/20 07:12:02;;;;;;;;;;;;;;;17.04;95.18;101461.69;10498900;28;20286;-60
2023/07/20 07:17:05;;;;;;;;;;;;;;;17.80;89.91;101465.63;10498960;28;20379;-60
2023/07/20 07:22:07;;;;;;;;;;;;;;;18.17;82.39;101465.44;10499183;28;20295;-60
2023/07/20 07:27:09;;;;;;;;;;;;;;;18.52;80.31;101464.38;10498644;28;20363;-60
2023/07/20 07:32:12;;;;;;;;;;;;;;;19.19;76.50;101473.13;10480300;28;19964;-60
2023/07/20 07:37:14;;;;;;;;;;;;;;;19.99;73.14;101466.38;10464336;28;19931;-60
2023/07/20 07:42:16;;;;;;;;;;;;;;;18.77;71.28;101477.50;10498452;28;20023;-60
2023/07/20 07:47:19;;;;;;;;;;;;;;;19.95;70.43;101472.94;10498351;28;19925;-61
2023/07/20 07:52:21;;;;;;;;;;;;;;;20.98;70.38;101471.00;10480387;28;20368;-61
2023/07/20 07:57:23;;;;;;;;;;;;;;;21.14;68.78;101470.41;10498131;28;19924;-61
2023/07/20 08:02:26;;;;;;;;;;;;;;;19.76;73.15;101476.34;10497907;28;20294;-61
2023/07/20 08:07:28;;;;;;;;;;;;;;;20.71;70.59;101471.66;10498042;28;19928;-61
2023/07/20 08:12:30;;;;;;;;;;;;;;;20.72;67.49;101478.66;10497707;28;20011;-61
2023/07/20 08:17:33;;;;;;;;;;;;;;;21.55;65.59;101484.41;10479818;28;20387;-61
2023/07/20 08:22:35;;;;;;;;;;;;;;;21.21;64.88;101482.19;10497527;28;19932;-61
2023/07/20 08:27:37;;;;;;;;;;;;;;;22.50;65.13;101487.03;10497333;28;20283;-61
2023/07/20 08:32:40;;;;;;;;;;;;;;;20.48;65.66;101492.31;10497424;28;19924;-61
2023/07/20 08:37:42;;;;;;;;;;;;;;;20.14;69.59;101495.25;10497283;28;19926;-61
2023/07/20 08:42:44;;;;;;;;;;;;;;;19.99;69.77;101498.28;10483926;28;19935;-61
2023/07/20 08:47:47;;;;;;;;;;;;;;;21.22;64.81;101488.38;10504875;28;20284;-61
2023/07/20 08:52:50;;;;;;;;;;;;;;;20.68;58.57;101486.09;10486932;28;19924;-61
2023/07/20 08:57:55;;;;;;;;;;;;;;;23.33;58.65;101485.03;10486724;28;19924;-61
2023/07/20 09:02:58;;;;;;;;;;;;;;;23.22;57.43;101487.94;10486600;28;19924;-61
2023/07/20 09:08:00;;;;;;;;;;;;;;;21.78;58.82;101479.59;10486429;28;19968;-61
2023/07/20 09:13:03;;;;;;;;;;;;;;;21.78;58.93;101471.59;10486073;28;19954;-60
2023/07/20 09:18:05;;;;;;;;;;;;;;;20.55;60.38;101485.47;10503676;28;19928;-61
2023/07/20 09:23:07;;;;;;;;;;;;;;;22.41;61.21;101481.59;10503623;28;19933;-61
2023/07/20 09:28:10;;;;;;;;;;;;;;;23.43;61.02;101484.91;10503332;28;19962;-61
2023/07/20 09:33:21;;;;;;;;;;;;;;;21.63;58.16;101481.03;10503090;28;20313;-61
2023/07/20 09:38:26;;;;;;;;;;;;;;;21.14;59.35;101475.75;10502840;28;19947;-61
2023/07/20 09:43:30;;;;;;;;;;;;;;;21.00;59.67;101477.00;10503025;28;19924;-61
2023/07/20 09:48:32;;;;;;;;;;;;;;;20.95;60.23;101479.25;10502499;28;19928;-61
2023/07/20 09:53:36;;;;;;;;;;;;;;;23.47;56.02;101464.91;10483892;28;19924;-61
2023/07/20 09:58:39;;;;;;;;;;;;;;;23.69;53.80;101462.72;10484279;28;20012;-61
2023/07/20 10:03:41;;;;;;;;;;;;;;;23.56;55.72;101458.63;10501840;28;20279;-61
2023/07/20 10:08:43;;;;;;;;;;;;;;;21.51;58.76;101459.06;10484045;28;19954;-61
2023/07/20 10:13:50;;;;;;;;;;;;;;;21.45;57.75;101456.91;10501355;28;19932;-61
2023/07/20 10:19:01;;;;;;;;;;;;;;;21.67;58.93;101459.28;10483702;28;19924;-61
2023/07/20 10:24:04;;;;;;;;;;;;;;;21.89;56.80;101451.94;10500820;28;20386;-61
2023/07/20 10:29:06;;;;;;;;;;;;;;;22.98;55.07;101449.31;10500606;28;19934;-61
2023/07/20 10:34:08;;;;;;;;;;;;;;;24.15;50.46;101451.78;10482918;28;20247;-61
2023/07/20 10:39:23;;;;;;;;;;;;;;;24.34;51.88;101445.31;10482898;28;19975;-61
2023/07/20 10:44:25;;;;;;;;;;;;;;;24.79;52.61;101442.22;10500317;28;19971;-61
2023/07/20 10:49:27;;;;;;;;;;;;;;;25.11;51.30;101432.53;10499909;28;20309;-61
2023/07/20 10:54:30;;;;;;;;;;;;;;;24.25;51.68;101429.22;10482177;28;20003;-61
2023/07/20 10:59:32;;;;;;;;;;;;;;;24.83;54.03;101432.88;10499649;28;19924;-62
2023/07/20 11:04:38;;;;;;;;;;;;;;;22.73;54.97;101434.06;10499251;28;19924;-62
2023/07/20 11:09:42;;;;;;;;;;;;;;;22.40;55.64;101439.06;10481575;28;20264;-61
2023/07/20 11:14:57;;;;;;;;;;;;;;;22.69;55.54;101440.69;10498871;28;19978;-62
2023/07/20 11:20:03;;;;;;;;;;;;;;;23.46;54.47;101431.16;10481466;28;19931;-62
2023/07/20 11:25:09;;;;;;;;;;;;;;;26.46;52.89;101421.06;10498740;28;20384;-62
2023/07/20 11:30:18;;;;;;;;;;;;;;;27.59;48.08;101425.69;10544501;22;19924;-61
2023/07/20 11:35:20;;;;;;;;;;;;;;;25.46;47.82;101416.28;10540517;28;19930;-61
2023/07/20 11:40:22;;;;;;;;;;;;;;;26.81;48.34;101411.59;10540279;28;20392;-61
2023/07/20 11:45:32;;;;;;;;;;;;;;;26.64;47.27;101407.38;10540187;28;20363;-61
2023/07/20 11:50:38;;;;;;;;;;;;;;;24.99;46.53;101407.94;10522880;28;19971;-60
2023/07/20 11:55:40;;;;;;;;;;;;;;;24.97;49.73;101395.72;10540014;28;20018;-61
2023/07/20 12:00:43;;;;;;;;;;;;;;;25.20;50.89;101393.16;10539794;28;19928;-61
2023/07/20 12:05:46;;;;;;;;;;;;;;;25.15;47.63;101382.97;10538707;28;19978;-61
2023/07/20 12:11:02;;;;;;;;;;;;;;;25.55;49.48;101385.75;10539643;28;20401;-61
2023/07/20 12:16:14;;;;;;;;;;;;;;;25.41;48.17;101379.25;10541852;28;19930;-61
2023/07/20 12:21:16;;;;;;;;;;;;;;;25.00;51.00;101380.16;10546843;28;19924;-61
2023/07/20 12:26:20;;;;;;;;;;;;;;;24.25;52.28;101385.59;10546431;28;19924;-61
2023/07/20 12:31:24;;;;;;;;;;;;;;;24.07;54.27;101385.69;10547438;28;20329;-61
2023/07/20 12:36:26;;;;;;;;;;;;;;;23.37;54.40;101384.84;10547571;28;19924;-61
2023/07/20 12:41:28;;;;;;;;;;;;;;;23.24;55.42;101379.09;10545910;28;20389;-61
2023/07/20 12:46:34;;;;;;;;;;;;;;;23.79;54.05;101385.91;10546864;28;19924;-61
2023/07/20 12:51:37;;;;;;;;;;;;;;;24.65;50.90;101371.44;10546896;28;19951;-61
2023/07/20 12:56:39;;;;;;;;;;;;;;;23.86;53.00;101372.78;10546540;28;20015;-61
2023/07/20 13:01:44;;;;;;;;;;;;;;;23.47;52.30;101371.41;10546343;28;20355;-61
2023/07/20 13:06:46;;;;;;;;;;;;;;;23.10;53.65;101367.16;10546167;28;20011;-61
2023/07/20 13:11:49;;;;;;;;;;;;;;;23.14;54.25;101351.66;10545895;28;19924;-61
2023/07/20 13:16:51;;;;;;;;;;;;;;;23.49;54.32;101356.03;10545765;28;20276;-61
2023/07/20 13:21:53;;;;;;;;;;;;;;;23.27;55.34;101349.41;10545605;28;19966;-60
2023/07/20 13:26:55;;;;;;;;;;;;;;;23.00;55.74;101340.53;10543971;28;19960;-61
2023/07/20 13:31:58;;;;;;;;;;;;;;;22.96;55.59;101338.31;10545164;28;19924;-60
2023/07/20 13:37:00;;;;;;;;;;;;;;;23.84;54.35;101337.31;10545196;28;20000;-61
2023/07/20 13:42:05;;;;;;;;;;;;;;;23.45;54.14;101335.97;10543806;28;19924;-61
2023/07/20 13:47:07;;;;;;;;;;;;;;;23.50;54.88;101341.69;10543371;28;19935;-61
2023/07/20 13:52:12;;;;;;;;;;;;;;;23.83;55.79;101341.84;10544761;28;19928;-61
2023/07/20 13:57:17;;;;;;;;;;;;;;;24.03;51.75;101328.19;10544130;28;20015;-61
2023/07/20 14:02:19;;;;;;;;;;;;;;;24.00;51.10;101334.69;10544161;28;19924;-60
2023/07/20 14:07:25;;;;;;;;;;;;;;;23.69;52.38;101332.56;10543604;28;20371;-61
2023/07/20 14:12:27;;;;;;;;;;;;;;;23.13;52.48;101325.94;10543495;28;19973;-61
2023/07/20 14:17:29;;;;;;;;;;;;;;;23.30;53.00;101321.53;10543196;28;19931;-60
2023/07/20 14:22:33;;;;;;;;;;;;;;;23.14;50.36;101308.94;10543230;28;19924;-60
2023/07/20 14:27:36;;;;;;;;;;;;;;;23.14;52.01;101308.94;10542791;28;19931;-61
2023/07/20 14:32:40;;;;;;;;;;;;;;;23.45;51.06;101303.91;10542554;28;19931;-61
2023/07/20 14:37:42;;;;;;;;;;;;;;;24.54;51.96;101295.97;10541359;28;19950;-61
2023/07/20 14:42:44;;;;;;;;;;;;;;;25.68;47.38;101292.19;10542072;28;20371;-61
2023/07/20 14:47:53;;;;;;;;;;;;;;;25.81;46.83;101290.81;10541992;28;20299;-61
2023/07/20 14:52:55;;;;;;;;;;;;;;;27.13;46.38;101272.59;10542123;28;19928;-62
2023/07/20 14:57:57;;;;;;;;;;;;;;;26.40;46.46;101282.19;10541644;28;20355;-61
2023/07/20 15:03:00;;;;;;;;;;;;;;;25.56;44.37;101281.03;10541745;28;19924;-61
2023/07/20 15:08:02;;;;;;;;;;;;;;;26.04;45.30;101270.22;10541204;28;19931;-61
2023/07/20 15:13:04;;;;;;;;;;;;;;;25.45;43.30;101275.22;10541189;28;19930;-61
2023/07/20 15:18:07;;;;;;;;;;;;;;;25.90;46.33;101268.28;10541007;28;20445;-61
2023/07/20 15:23:10;;;;;;;;;;;;;;;25.19;49.26;101268.25;10540786;28;19946;-61
2023/07/20 15:28:14;;;;;;;;;;;;;;;24.85;46.89;101264.00;10539703;28;20170;-60
2023/07/20 15:33:16;;;;;;;;;;;;;;;23.92;49.99;101262.47;10539360;28;20310;-61
2023/07/20 15:38:19;;;;;;;;;;;;;;;23.96;48.30;101257.66;10540655;28;20011;-60
2023/07/20 15:43:22;;;;;;;;;;;;;;;24.10;50.38;101257.00;10540233;28;19924;-61
2023/07/20 15:48:24;;;;;;;;;;;;;;;24.01;50.47;101253.47;10540018;28;20279;-61
2023/07/20 15:53:26;;;;;;;;;;;;;;;23.82;51.93;101256.44;10539393;28;19928;-60
2023/07/20 15:58:29;;;;;;;;;;;;;;;23.49;51.03;101256.34;10538811;28;19924;-61
2023/07/20 16:03:32;;;;;;;;;;;;;;;23.43;51.46;101247.09;10540011;28;19924;-60
2023/07/20 16:08:37;;;;;;;;;;;;;;;23.70;50.96;101238.03;10539802;28;19943;-61
2023/07/20 16:13:39;;;;;;;;;;;;;;;23.68;52.01;101244.53;10538490;28;20375;-61
2023/07/20 16:18:41;;;;;;;;;;;;;;;22.94;52.93;101237.00;10539649;28;20007;-60
2023/07/20 16:23:44;;;;;;;;;;;;;;;22.73;54.88;101233.88;10538271;28;20264;-61
2023/07/20 16:28:46;;;;;;;;;;;;;;;22.73;53.69;101233.88;10539229;28;19975;-60
2023/07/20 16:33:48;;;;;;;;;;;;;;;22.76;53.97;101231.75;10539300;28;19931;-60
2023/07/20 16:38:50;;;;;;;;;;;;;;;22.54;55.46;101226.91;10539144;28;20362;-61
2023/07/20 16:44:14;;;;;;;;;;;;;;;22.36;56.59;101226.94;10538986;28;19932;-60
2023/07/20 16:49:16;;;;;;;;;;;;;;;21.79;57.74;101232.59;10538874;28;20298;-60
2023/07/20 16:54:18;;;;;;;;;;;;;;;21.53;56.93;101225.31;10538779;28;19931;-61
2023/07/20 16:59:20;;;;;;;;;;;;;;;21.80;58.37;101220.94;10539085;28;19934;-61
2023/07/20 17:04:23;;;;;;;;;;;;;;;21.51;63.39;101225.44;10544041;28;19931;-61
2023/07/20 17:09:25;;;;;;;;;;;;;;;21.31;65.04;101226.53;10545989;28;20018;-60
2023/07/20 17:14:28;;;;;;;;;;;;;;;21.22;65.37;101224.75;10546269;28;19924;-60
2023/07/20 17:19:30;;;;;;;;;;;;;;;21.34;62.70;101216.41;10545696;28;19924;-60
2023/07/20 17:24:34;;;;;;;;;;;;;;;21.14;62.96;101213.00;10545817;28;19924;-60
2023/07/20 17:29:39;;;;;;;;;;;;;;;21.02;64.23;101216.84;10545241;28;19924;-60
2023/07/20 17:34:41;;;;;;;;;;;;;;;20.71;64.74;101218.91;10545073;28;20398;-61
2023/07/20 17:39:44;;;;;;;;;;;;;;;20.80;65.06;101220.69;10545063;28;19930;-60
2023/07/20 17:44:49;;;;;;;;;;;;;;;20.59;64.70;101211.06;10544701;28;19924;-60
2023/07/20 17:49:51;;;;;;;;;;;;;;;20.57;64.46;101215.66;10544559;28;19924;-60
2023/07/20 17:54:53;;;;;;;;;;;;;;;20.80;60.96;101212.72;10544373;28;19924;-60
2023/07/20 17:59:56;;;;;;;;;;;;;;;20.65;60.82;101209.69;10544350;28;19998;-60
2023/07/20 18:05:01;;;;;;;;;;;;;;;20.56;61.01;101208.69;10543840;28;19931;-59
2023/07/20 18:10:03;;;;;;;;;;;;;;;20.60;60.85;101222.53;10543616;28;20030;-60
2023/07/20 18:15:06;;;;;;;;;;;;;;;20.48;62.36;101210.41;10542732;28;19924;-59
2023/07/20 18:20:09;;;;;;;;;;;;;;;20.47;60.74;101214.03;10543242;28;19924;-60
2023/07/20 18:25:12;;;;;;;;;;;;;;;20.58;59.89;101211.22;10543070;28;20390;-60
2023/07/20 18:30:18;;;;;;;;;;;;;;;20.40;60.52;101205.78;10542552;28;20267;-59
2023/07/20 18:35:20;;;;;;;;;;;;;;;20.40;61.52;101208.44;10542874;28;19927;-59
2023/07/20 18:40:23;;;;;;;;;;;;;;;20.13;62.05;101209.16;10542454;28;20298;-59
2023/07/20 18:45:25;;;;;;;;;;;;;;;20.03;62.64;101212.66;10542422;28;19924;-60
2023/07/20 18:50:31;;;;;;;;;;;;;;;20.16;63.51;101204.41;10542208;28;19931;-60
2023/07/20 18:55:35;;;;;;;;;;;;;;;20.04;63.11;101214.34;10541903;28;19924;-61
2023/07/20 19:00:37;;;;;;;;;;;;;;;19.38;65.28;101212.22;10541700;28;20018;-60
2023/07/20 19:05:44;;;;;;;;;;;;;;;19.67;65.49;101207.00;10541651;28;20014;-60
2023/07/20 19:10:46;;;;;;;;;;;;;;;19.64;64.37;101207.28;10541420;28;19963;-60
2023/07/20 19:15:55;;;;;;;;;;;;;;;19.38;66.19;101201.63;10540147;28;19924;-60
2023/07/20 19:20:59;;;;;;;;;;;;;;;19.39;64.47;101211.28;10541029;28;19955;-60
2023/07/20 19:26:06;;;;;;;;;;;;;;;19.21;66.22;101211.06;10541020;28;19930;-60
2023/07/20 19:31:09;;;;;;;;;;;;;;;19.15;66.27;101216.94;10540431;28;19924;-59
2023/07/20 19:36:11;;;;;;;;;;;;;;;19.21;66.59;101218.19;10539302;28;20371;-60
2023/07/20 19:41:14;;;;;;;;;;;;;;;19.13;66.94;101221.50;10540394;28;19938;-59
2023/07/20 19:46:16;;;;;;;;;;;;;;;19.06;67.39;101228.31;10540227;28;20275;-60
2023/07/20 19:51:18;;;;;;;;;;;;;;;18.35;70.98;101221.88;10540114;28;20002;-59
2023/07/20 19:56:21;;;;;;;;;;;;;;;18.88;68.16;101228.97;10539867;28;19924;-60
2023/07/20 20:01:23;;;;;;;;;;;;;;;18.71;69.43;101222.41;10540029;28;19925;-59
2023/07/20 20:06:28;;;;;;;;;;;;;;;18.74;69.49;101227.47;10539662;28;19970;-59
2023/07/20 20:11:30;;;;;;;;;;;;;;;18.50;70.97;101233.00;10539898;28;19930;-59
2023/07/20 20:16:33;;;;;;;;;;;;;;;18.35;71.83;101231.66;10539525;28;19930;-59
2023/07/20 20:21:36;;;;;;;;;;;;;;;18.27;72.31;101229.63;10539813;28;20006;-59
2023/07/20 20:26:40;;;;;;;;;;;;;;;18.07;76.56;101235.75;10538686;28;19963;-59
2023/07/20 20:31:42;;;;;;;;;;;;;;;18.18;75.30;101233.06;10497549;28;19999;-59
2023/07/20 20:36:45;;;;;;;;;;;;;;;17.92;77.67;101232.53;10499021;28;19932;-59
2023/07/20 20:41:47;;;;;;;;;;;;;;;17.96;78.50;101226.03;10505065;28;20291;-60
2023/07/20 20:46:49;;;;;;;;;;;;;;;17.57;82.16;101221.16;10505190;28;19968;-59
2023/07/20 20:51:51;;;;;;;;;;;;;;;17.48;82.37;101211.31;10504888;28;19925;-59
2023/07/20 20:56:56;;;;;;;;;;;;;;;17.33;83.16;101207.25;10504599;28;19924;-59
2023/07/20 21:01:58;;;;;;;;;;;;;;;16.94;88.52;101207.59;10504464;28;19972;-58
2023/07/20 21:07:00;;;;;;;;;;;;;;;17.12;87.31;101215.91;10504249;28;19925;-59
2023/07/20 21:12:02;;;;;;;;;;;;;;;16.88;89.34;101227.44;10504242;28;19924;-60
2023/07/20 21:17:05;;;;;;;;;;;;;;;16.74;90.42;101222.34;10503980;28;19924;-60
2023/07/20 21:22:07;;;;;;;;;;;;;;;16.57;90.30;101215.69;10502575;28;19929;-59
2023/07/20 21:27:10;;;;;;;;;;;;;;;16.86;86.33;101216.16;10507126;28;19924;-60
2023/07/20 21:32:12;;;;;;;;;;;;;;;16.62;89.80;101213.53;10545161;28;20374;-59
2023/07/20 21:37:14;;;;;;;;;;;;;;;16.41;91.40;101213.38;10545198;28;19924;-60
2023/07/20 21:42:16;;;;;;;;;;;;;;;16.19;95.11;101215.94;10544950;28;19931;-59
2023/07/20 21:47:19;;;;;;;;;;;;;;;15.97;97.63;101217.56;10544302;28;19931;-60
2023/07/20 21:52:21;;;;;;;;;;;;;;;15.95;98.42;101207.09;10543753;28;20282;-59
2023/07/20 21:57:24;;;;;;;;;;;;;;;15.76;100.00;101212.84;10544173;28;19959;-59
2023/07/20 22:02:26;;;;;;;;;;;;;;;15.66;100.00;101211.81;10544057;28;20434;-59
2023/07/20 22:07:29;;;;;;;;;;;;;;;15.66;100.00;101219.72;10543724;28;19958;-59
2023/07/20 22:12:31;;;;;;;;;;;;;;;15.57;100.00;101212.50;10543779;28;19931;-59
2023/07/20 22:17:33;;;;;;;;;;;;;;;15.58;100.00;101208.88;10543515;28;19924;-59
2023/07/20 22:22:36;;;;;;;;;;;;;;;15.87;100.00;101211.22;10543107;28;20016;-59
2023/07/20 22:27:38;;;;;;;;;;;;;;;15.90;100.00;101208.38;10542805;28;20015;-59
2023/07/20 22:32:41;;;;;;;;;;;;;;;15.79;100.00;101207.38;10542717;28;19924;-59
2023/07/20 22:37:43;;;;;;;;;;;;;;;15.76;100.00;101210.22;10524859;28;19924;-59
2023/07/20 22:42:47;;;;;;;;;;;;;;;15.82;100.00;101210.72;10542530;28;19924;-59
2023/07/20 22:47:50;;;;;;;;;;;;;;;15.97;100.00;101197.25;10542117;28;20290;-59
2023/07/20 22:52:52;;;;;;;;;;;;;;;15.74;100.00;101201.53;10541056;28;20045;-60
2023/07/20 22:57:55;;;;;;;;;;;;;;;15.96;100.00;101198.19;10541846;28;20385;-59
2023/07/20 23:02:57;;;;;;;;;;;;;;;15.95;100.00;101191.25;10541281;28;19963;-59
2023/07/20 23:08:00;;;;;;;;;;;;;;;15.74;100.00;101188.34;10541570;28;19924;-59
2023/07/20 23:13:02;;;;;;;;;;;;;;;15.73;100.00;101191.94;10540080;28;20291;-59
2023/07/20 23:18:05;;;;;;;;;;;;;;;15.53;100.00;101192.53;10541078;28;20027;-60
2023/07/20 23:23:08;;;;;;;;;;;;;;;15.53;100.00;101192.53;10540930;28;20379;-59
2023/07/20 23:28:10;;;;;;;;;;;;;;;15.24;100.00;101179.63;10540408;28;19924;-59
2023/07/20 23:33:13;;;;;;;;;;;;;;;15.20;100.00;101178.19;10540634;28;19927;-59
2023/07/20 23:38:16;;;;;;;;;;;;;;;15.07;100.00;101175.56;10540648;28;19947;-59
2023/07/20 23:43:18;;;;;;;;;;;;;;;14.94;100.00;101172.94;10521217;22;20336;-59
2023/07/20 23:48:23;;;;;;;;;;;;;;;14.98;100.00;101171.78;10498440;28;20470;-60
2023/07/20 23:53:25;;;;;;;;;;;;;;;14.87;100.00;101171.69;10498461;28;20010;-60
2023/07/20 23:58:27;;;;;;;;;;;;;;;14.86;100.00;101159.44;10480413;28;19931;-60
